sensor_id;sensor_type;location;lat;lon;timestamp;temperature;humidity
81210;DHT22;70685;52.496;13.420;2023-08-24T00:00:17;20.50;58.60
81210;DHT22;70685;52.496;13.420;2023-08-24T00:02:48;20.50;58.90
81210;DHT22;70685;52.496;13.420;2023-08-24T00:05:14;20.50;59.00
81210;DHT22;70685;52.496;13.420;2023-08-24T00:07:40;20.50;58.80
81210;DHT22;70685;52.496;13.420;2023-08-24T00:10:06;20.40;58.90
81210;DHT22;70685;52.496;13.420;2023-08-24T00:12:33;20.50;59.00
81210;DHT22;70685;52.496;13.420;2023-08-24T00:15:00;20.60;58.70
81210;DHT22;70685;52.496;13.420;2023-08-24T00:17:26;20.50;58.50
81210;DHT22;70685;52.496;13.420;2023-08-24T00:19:52;20.50;58.90
81210;DHT22;70685;52.496;13.420;2023-08-24T00:22:17;20.50;59.20
81210;DHT22;70685;52.496;13.420;2023-08-24T00:24:46;20.50;59.40
81210;DHT22;70685;52.496;13.420;2023-08-24T00:27:14;20.70;59.30
81210;DHT22;70685;52.496;13.420;2023-08-24T00:29:40;20.70;59.20
81210;DHT22;70685;52.496;13.420;2023-08-24T00:32:06;20.70;59.20
81210;DHT22;70685;52.496;13.420;2023-08-24T00:34:32;20.80;59.20
81210;DHT22;70685;52.496;13.420;2023-08-24T00:36:57;20.70;59.70
81210;DHT22;70685;52.496;13.420;2023-08-24T00:39:23;20.60;60.00
81210;DHT22;70685;52.496;13.420;2023-08-24T00:41:49;20.60;59.90
81210;DHT22;70685;52.496;13.420;2023-08-24T00:44:14;20.50;59.80
81210;DHT22;70685;52.496;13.420;2023-08-24T00:46:40;20.50;60.10
81210;DHT22;70685;52.496;13.420;2023-08-24T00:49:07;20.40;60.10
81210;DHT22;70685;52.496;13.420;2023-08-24T00:51:32;20.30;60.50
81210;DHT22;70685;52.496;13.420;2023-08-24T00:54:02;20.30;60.90
81210;DHT22;70685;52.496;13.420;2023-08-24T00:56:35;20.30;60.80
81210;DHT22;70685;52.496;13.420;2023-08-24T00:59:02;20.20;60.80
81210;DHT22;70685;52.496;13.420;2023-08-24T01:01:30;20.20;61.30
81210;DHT22;70685;52.496;13.420;2023-08-24T01:03:58;20.20;61.40
81210;DHT22;70685;52.496;13.420;2023-08-24T01:06:26;20.30;61.30
81210;DHT22;70685;52.496;13.420;2023-08-24T01:08:51;20.20;61.30
81210;DHT22;70685;52.496;13.420;2023-08-24T01:16:46;20.10;61.80
81210;DHT22;70685;52.496;13.420;2023-08-24T01:21:58;20.10;61.60
81210;DHT22;70685;52.496;13.420;2023-08-24T01:24:45;20.20;61.40
81210;DHT22;70685;52.496;13.420;2023-08-24T01:27:12;20.30;61.20
81210;DHT22;70685;52.496;13.420;2023-08-24T01:29:38;20.50;60.50
81210;DHT22;70685;52.496;13.420;2023-08-24T01:32:09;20.50;60.50
81210;DHT22;70685;52.496;13.420;2023-08-24T01:34:37;20.50;60.00
81210;DHT22;70685;52.496;13.420;2023-08-24T01:37:06;20.50;60.10
81210;DHT22;70685;52.496;13.420;2023-08-24T01:42:09;20.70;59.60
81210;DHT22;70685;52.496;13.420;2023-08-24T01:44:39;20.80;59.20
81210;DHT22;70685;52.496;13.420;2023-08-24T01:47:11;20.70;59.00
81210;DHT22;70685;52.496;13.420;2023-08-24T01:49:38;20.70;59.50
81210;DHT22;70685;52.496;13.420;2023-08-24T01:52:05;20.60;59.20
81210;DHT22;70685;52.496;13.420;2023-08-24T01:54:31;20.60;59.60
81210;DHT22;70685;52.496;13.420;2023-08-24T01:56:57;20.60;59.80
81210;DHT22;70685;52.496;13.420;2023-08-24T01:59:23;20.80;59.40
81210;DHT22;70685;52.496;13.420;2023-08-24T02:01:49;20.90;59.70
81210;DHT22;70685;52.496;13.420;2023-08-24T02:04:16;20.80;60.40
81210;DHT22;70685;52.496;13.420;2023-08-24T02:06:42;20.70;60.80
81210;DHT22;70685;52.496;13.420;2023-08-24T02:09:08;20.70;61.00
81210;DHT22;70685;52.496;13.420;2023-08-24T02:11:33;20.70;61.20
81210;DHT22;70685;52.496;13.420;2023-08-24T02:14:04;20.70;61.40
81210;DHT22;70685;52.496;13.420;2023-08-24T02:16:31;20.70;61.70
81210;DHT22;70685;52.496;13.420;2023-08-24T02:18:57;20.60;61.80
81210;DHT22;70685;52.496;13.420;2023-08-24T02:21:23;20.70;61.90
81210;DHT22;70685;52.496;13.420;2023-08-24T02:23:49;20.90;61.40
81210;DHT22;70685;52.496;13.420;2023-08-24T02:26:17;20.90;61.50
81210;DHT22;70685;52.496;13.420;2023-08-24T02:28:45;21.00;61.40
81210;DHT22;70685;52.496;13.420;2023-08-24T02:31:10;21.00;61.10
81210;DHT22;70685;52.496;13.420;2023-08-24T02:33:36;21.10;61.00
81210;DHT22;70685;52.496;13.420;2023-08-24T02:36:04;21.20;61.00
81210;DHT22;70685;52.496;13.420;2023-08-24T02:38:30;21.20;60.70
81210;DHT22;70685;52.496;13.420;2023-08-24T02:41:02;21.20;60.60
81210;DHT22;70685;52.496;13.420;2023-08-24T02:43:31;21.40;60.40
81210;DHT22;70685;52.496;13.420;2023-08-24T02:46:03;21.30;60.30
81210;DHT22;70685;52.496;13.420;2023-08-24T02:48:31;21.30;60.40
81210;DHT22;70685;52.496;13.420;2023-08-24T02:50:58;21.40;60.30
81210;DHT22;70685;52.496;13.420;2023-08-24T02:53:26;21.30;60.30
81210;DHT22;70685;52.496;13.420;2023-08-24T02:55:55;21.30;60.30
81210;DHT22;70685;52.496;13.420;2023-08-24T02:58:22;21.20;60.50
81210;DHT22;70685;52.496;13.420;2023-08-24T03:00:54;21.20;60.50
81210;DHT22;70685;52.496;13.420;2023-08-24T03:03:20;21.20;60.50
81210;DHT22;70685;52.496;13.420;2023-08-24T03:05:58;21.20;60.50
81210;DHT22;70685;52.496;13.420;2023-08-24T03:08:24;21.10;60.60
81210;DHT22;70685;52.496;13.420;2023-08-24T03:10:50;20.90;60.50
81210;DHT22;70685;52.496;13.420;2023-08-24T03:13:16;21.00;60.80
81210;DHT22;70685;52.496;13.420;2023-08-24T03:15:42;21.10;60.40
81210;DHT22;70685;52.496;13.420;2023-08-24T03:18:16;21.20;60.40
81210;DHT22;70685;52.496;13.420;2023-08-24T03:20:43;21.20;60.10
81210;DHT22;70685;52.496;13.420;2023-08-24T03:23:12;21.20;60.20
81210;DHT22;70685;52.496;13.420;2023-08-24T03:25:39;21.20;60.00
81210;DHT22;70685;52.496;13.420;2023-08-24T03:28:06;21.20;59.90
81210;DHT22;70685;52.496;13.420;2023-08-24T03:30:39;21.20;59.80
81210;DHT22;70685;52.496;13.420;2023-08-24T03:33:10;21.20;59.50
81210;DHT22;70685;52.496;13.420;2023-08-24T03:35:36;21.20;59.70
81210;DHT22;70685;52.496;13.420;2023-08-24T03:38:03;21.20;59.40
81210;DHT22;70685;52.496;13.420;2023-08-24T03:40:29;21.20;59.20
81210;DHT22;70685;52.496;13.420;2023-08-24T03:42:55;21.20;59.00
81210;DHT22;70685;52.496;13.420;2023-08-24T04:17:36;21.20;57.90
81210;DHT22;70685;52.496;13.420;2023-08-24T04:24:14;21.30;57.60
81210;DHT22;70685;52.496;13.420;2023-08-24T04:27:00;21.10;57.70
81210;DHT22;70685;52.496;13.420;2023-08-24T04:30:03;21.10;58.10
81210;DHT22;70685;52.496;13.420;2023-08-24T04:36:16;21.20;57.90
81210;DHT22;70685;52.496;13.420;2023-08-24T04:42:13;21.30;57.50
81210;DHT22;70685;52.496;13.420;2023-08-24T04:45:05;21.30;57.50
81210;DHT22;70685;52.496;13.420;2023-08-24T05:11:55;21.70;56.40
81210;DHT22;70685;52.496;13.420;2023-08-24T06:38:59;36.50;28.60
81210;DHT22;70685;52.496;13.420;2023-08-24T06:41:44;36.70;27.60
81210;DHT22;70685;52.496;13.420;2023-08-24T06:44:17;37.20;27.10
81210;DHT22;70685;52.496;13.420;2023-08-24T06:46:42;37.20;26.80
81210;DHT22;70685;52.496;13.420;2023-08-24T06:49:11;37.30;27.00
81210;DHT22;70685;52.496;13.420;2023-08-24T06:54:39;38.10;25.90
81210;DHT22;70685;52.496;13.420;2023-08-24T06:57:07;38.20;26.40
81210;DHT22;70685;52.496;13.420;2023-08-24T06:59:33;38.10;26.10
81210;DHT22;70685;52.496;13.420;2023-08-24T07:02:08;38.70;25.90
81210;DHT22;70685;52.496;13.420;2023-08-24T07:12:00;39.40;24.90
81210;DHT22;70685;52.496;13.420;2023-08-24T07:15:00;40.00;24.50
81210;DHT22;70685;52.496;13.420;2023-08-24T07:24:57;40.10;24.30
81210;DHT22;70685;52.496;13.420;2023-08-24T07:31:38;40.10;23.80
81210;DHT22;70685;52.496;13.420;2023-08-24T07:34:25;39.80;23.80
81210;DHT22;70685;52.496;13.420;2023-08-24T07:37:00;40.00;24.10
81210;DHT22;70685;52.496;13.420;2023-08-24T07:39:28;39.90;24.10
81210;DHT22;70685;52.496;13.420;2023-08-24T07:41:54;40.00;24.00
81210;DHT22;70685;52.496;13.420;2023-08-24T07:47:40;41.20;23.10
81210;DHT22;70685;52.496;13.420;2023-08-24T07:50:08;41.70;22.90
81210;DHT22;70685;52.496;13.420;2023-08-24T07:59:14;41.10;22.70
81210;DHT22;70685;52.496;13.420;2023-08-24T08:02:19;41.00;22.50
81210;DHT22;70685;52.496;13.420;2023-08-24T08:05:24;41.30;22.70
81210;DHT22;70685;52.496;13.420;2023-08-24T08:25:15;37.50;25.50
81210;DHT22;70685;52.496;13.420;2023-08-24T08:35:05;36.20;26.60
81210;DHT22;70685;52.496;13.420;2023-08-24T08:41:15;33.50;29.40
81210;DHT22;70685;52.496;13.420;2023-08-24T08:44:29;32.60;30.20
81210;DHT22;70685;52.496;13.420;2023-08-24T08:50:40;31.20;32.50
81210;DHT22;70685;52.496;13.420;2023-08-24T08:53:08;30.60;33.30
81210;DHT22;70685;52.496;13.420;2023-08-24T08:55:34;30.20;34.00
81210;DHT22;70685;52.496;13.420;2023-08-24T08:58:00;29.90;34.20
81210;DHT22;70685;52.496;13.420;2023-08-24T09:00:33;29.90;34.80
81210;DHT22;70685;52.496;13.420;2023-08-24T09:03:01;29.70;35.20
81210;DHT22;70685;52.496;13.420;2023-08-24T09:05:28;29.50;35.30
81210;DHT22;70685;52.496;13.420;2023-08-24T09:07:55;29.40;35.90
81210;DHT22;70685;52.496;13.420;2023-08-24T09:10:22;29.30;35.50
81210;DHT22;70685;52.496;13.420;2023-08-24T09:12:48;29.20;36.00
81210;DHT22;70685;52.496;13.420;2023-08-24T09:15:14;29.20;36.20
81210;DHT22;70685;52.496;13.420;2023-08-24T09:17:43;29.40;36.00
81210;DHT22;70685;52.496;13.420;2023-08-24T09:20:09;30.10;35.10
81210;DHT22;70685;52.496;13.420;2023-08-24T09:22:36;30.80;35.20
81210;DHT22;70685;52.496;13.420;2023-08-24T09:25:06;31.50;33.60
81210;DHT22;70685;52.496;13.420;2023-08-24T09:27:34;31.50;33.30
81210;DHT22;70685;52.496;13.420;2023-08-24T09:30:00;31.60;32.60
81210;DHT22;70685;52.496;13.420;2023-08-24T09:32:30;31.50;32.90
81210;DHT22;70685;52.496;13.420;2023-08-24T09:35:04;31.60;32.60
81210;DHT22;70685;52.496;13.420;2023-08-24T09:37:36;31.60;32.10
81210;DHT22;70685;52.496;13.420;2023-08-24T09:40:03;32.90;30.00
81210;DHT22;70685;52.496;13.420;2023-08-24T09:42:38;35.10;28.90
81210;DHT22;70685;52.496;13.420;2023-08-24T09:45:15;36.70;26.50
81210;DHT22;70685;52.496;13.420;2023-08-24T09:47:55;37.30;25.30
81210;DHT22;70685;52.496;13.420;2023-08-24T09:50:21;37.20;25.70
81210;DHT22;70685;52.496;13.420;2023-08-24T09:52:47;37.70;25.70
81210;DHT22;70685;52.496;13.420;2023-08-24T09:55:20;38.60;24.60
81210;DHT22;70685;52.496;13.420;2023-08-24T09:57:53;39.70;23.70
81210;DHT22;70685;52.496;13.420;2023-08-24T10:00:20;40.00;23.40
81210;DHT22;70685;52.496;13.420;2023-08-24T10:02:51;39.80;24.00
81210;DHT22;70685;52.496;13.420;2023-08-24T10:05:23;40.00;22.90
81210;DHT22;70685;52.496;13.420;2023-08-24T10:07:56;39.60;23.30
81210;DHT22;70685;52.496;13.420;2023-08-24T10:10:25;39.40;23.70
81210;DHT22;70685;52.496;13.420;2023-08-24T10:12:56;39.60;23.60
81210;DHT22;70685;52.496;13.420;2023-08-24T10:15:26;40.20;22.80
81210;DHT22;70685;52.496;13.420;2023-08-24T10:17:53;40.40;22.80
81210;DHT22;70685;52.496;13.420;2023-08-24T10:20:23;40.70;22.90
81210;DHT22;70685;52.496;13.420;2023-08-24T10:22:50;41.10;22.40
81210;DHT22;70685;52.496;13.420;2023-08-24T10:25:19;40.60;22.80
81210;DHT22;70685;52.496;13.420;2023-08-24T10:27:45;40.00;22.80
81210;DHT22;70685;52.496;13.420;2023-08-24T10:30:13;40.70;22.80
81210;DHT22;70685;52.496;13.420;2023-08-24T10:32:41;40.30;22.70
81210;DHT22;70685;52.496;13.420;2023-08-24T10:35:11;40.50;23.20
81210;DHT22;70685;52.496;13.420;2023-08-24T10:37:41;40.70;22.90
81210;DHT22;70685;52.496;13.420;2023-08-24T10:40:13;40.10;23.00
81210;DHT22;70685;52.496;13.420;2023-08-24T10:42:47;40.40;23.50
81210;DHT22;70685;52.496;13.420;2023-08-24T10:45:23;40.00;23.90
81210;DHT22;70685;52.496;13.420;2023-08-24T10:47:52;39.70;23.60
81210;DHT22;70685;52.496;13.420;2023-08-24T10:50:22;39.20;23.60
81210;DHT22;70685;52.496;13.420;2023-08-24T10:52:47;39.20;24.40
81210;DHT22;70685;52.496;13.420;2023-08-24T10:55:26;39.10;23.70
81210;DHT22;70685;52.496;13.420;2023-08-24T10:58:02;39.30;23.70
81210;DHT22;70685;52.496;13.420;2023-08-24T11:00:29;39.50;23.50
81210;DHT22;70685;52.496;13.420;2023-08-24T11:03:00;39.80;24.40
81210;DHT22;70685;52.496;13.420;2023-08-24T11:05:28;39.50;23.60
81210;DHT22;70685;52.496;13.420;2023-08-24T11:15:51;39.00;24.50
81210;DHT22;70685;52.496;13.420;2023-08-24T11:18:26;39.10;24.60
81210;DHT22;70685;52.496;13.420;2023-08-24T11:20:59;39.20;24.30
81210;DHT22;70685;52.496;13.420;2023-08-24T11:23:28;39.00;24.40
81210;DHT22;70685;52.496;13.420;2023-08-24T11:25:58;39.50;24.10
81210;DHT22;70685;52.496;13.420;2023-08-24T11:28:29;39.30;24.30
81210;DHT22;70685;52.496;13.420;2023-08-24T11:30:58;39.50;23.80
81210;DHT22;70685;52.496;13.420;2023-08-24T11:33:31;38.90;24.20
81210;DHT22;70685;52.496;13.420;2023-08-24T11:35:57;38.40;24.60
81210;DHT22;70685;52.496;13.420;2023-08-24T11:38:23;38.80;25.10
81210;DHT22;70685;52.496;13.420;2023-08-24T11:40:51;38.70;24.70
81210;DHT22;70685;52.496;13.420;2023-08-24T11:43:24;39.20;24.20
81210;DHT22;70685;52.496;13.420;2023-08-24T11:45:54;39.20;24.30
81210;DHT22;70685;52.496;13.420;2023-08-24T11:48:25;38.90;24.60
81210;DHT22;70685;52.496;13.420;2023-08-24T11:50:55;38.70;24.80
81210;DHT22;70685;52.496;13.420;2023-08-24T11:53:22;38.20;24.90
81210;DHT22;70685;52.496;13.420;2023-08-24T11:55:52;38.00;25.60
81210;DHT22;70685;52.496;13.420;2023-08-24T11:58:18;38.40;25.60
81210;DHT22;70685;52.496;13.420;2023-08-24T12:00:45;38.80;24.50
81210;DHT22;70685;52.496;13.420;2023-08-24T12:03:13;39.10;24.50
81210;DHT22;70685;52.496;13.420;2023-08-24T12:05:48;38.80;24.70
81210;DHT22;70685;52.496;13.420;2023-08-24T12:08:15;39.20;25.10
81210;DHT22;70685;52.496;13.420;2023-08-24T12:10:42;39.30;24.90
81210;DHT22;70685;52.496;13.420;2023-08-24T12:13:08;39.50;24.20
81210;DHT22;70685;52.496;13.420;2023-08-24T12:15:36;39.10;24.80
81210;DHT22;70685;52.496;13.420;2023-08-24T12:18:11;38.40;25.10
81210;DHT22;70685;52.496;13.420;2023-08-24T12:20:44;38.30;24.90
81210;DHT22;70685;52.496;13.420;2023-08-24T12:23:10;38.30;25.30
81210;DHT22;70685;52.496;13.420;2023-08-24T12:25:38;38.40;25.30
81210;DHT22;70685;52.496;13.420;2023-08-24T12:28:09;37.90;25.00
81210;DHT22;70685;52.496;13.420;2023-08-24T12:30:50;37.60;25.30
81210;DHT22;70685;52.496;13.420;2023-08-24T12:33:26;37.50;25.10
81210;DHT22;70685;52.496;13.420;2023-08-24T12:36:00;37.20;25.70
81210;DHT22;70685;52.496;13.420;2023-08-24T12:38:26;37.10;26.30
81210;DHT22;70685;52.496;13.420;2023-08-24T12:40:53;36.50;26.50
81210;DHT22;70685;52.496;13.420;2023-08-24T12:43:19;36.60;26.60
81210;DHT22;70685;52.496;13.420;2023-08-24T12:45:47;36.40;27.10
81210;DHT22;70685;52.496;13.420;2023-08-24T12:48:15;36.70;27.10
81210;DHT22;70685;52.496;13.420;2023-08-24T12:50:40;37.00;26.60
81210;DHT22;70685;52.496;13.420;2023-08-24T12:53:06;37.00;26.50
81210;DHT22;70685;52.496;13.420;2023-08-24T12:55:39;37.20;26.70
81210;DHT22;70685;52.496;13.420;2023-08-24T12:58:05;36.60;27.20
81210;DHT22;70685;52.496;13.420;2023-08-24T13:00:33;36.70;26.80
81210;DHT22;70685;52.496;13.420;2023-08-24T13:03:01;36.60;26.90
81210;DHT22;70685;52.496;13.420;2023-08-24T13:05:27;36.20;27.20
81210;DHT22;70685;52.496;13.420;2023-08-24T13:07:55;35.90;27.60
81210;DHT22;70685;52.496;13.420;2023-08-24T13:10:23;35.60;27.60
81210;DHT22;70685;52.496;13.420;2023-08-24T13:12:50;35.20;28.20
81210;DHT22;70685;52.496;13.420;2023-08-24T13:15:18;34.70;28.90
81210;DHT22;70685;52.496;13.420;2023-08-24T13:17:44;34.50;28.90
81210;DHT22;70685;52.496;13.420;2023-08-24T13:20:09;33.90;29.70
81210;DHT22;70685;52.496;13.420;2023-08-24T13:22:35;33.60;30.00
81210;DHT22;70685;52.496;13.420;2023-08-24T13:25:01;33.70;30.10
81210;DHT22;70685;52.496;13.420;2023-08-24T13:27:26;33.60;30.10
81210;DHT22;70685;52.496;13.420;2023-08-24T13:29:59;33.40;30.70
81210;DHT22;70685;52.496;13.420;2023-08-24T13:32:27;33.40;30.20
81210;DHT22;70685;52.496;13.420;2023-08-24T13:34:56;33.30;30.40
81210;DHT22;70685;52.496;13.420;2023-08-24T13:37:21;33.30;30.20
81210;DHT22;70685;52.496;13.420;2023-08-24T13:39:48;33.40;31.20
81210;DHT22;70685;52.496;13.420;2023-08-24T13:42:13;33.20;30.50
81210;DHT22;70685;52.496;13.420;2023-08-24T13:44:39;33.20;31.10
81210;DHT22;70685;52.496;13.420;2023-08-24T13:47:08;33.10;31.00
81210;DHT22;70685;52.496;13.420;2023-08-24T13:49:33;32.90;31.10
81210;DHT22;70685;52.496;13.420;2023-08-24T13:51:59;33.00;32.00
81210;DHT22;70685;52.496;13.420;2023-08-24T13:54:27;33.00;32.20
81210;DHT22;70685;52.496;13.420;2023-08-24T13:56:53;33.10;31.40
81210;DHT22;70685;52.496;13.420;2023-08-24T13:59:19;33.00;31.20
81210;DHT22;70685;52.496;13.420;2023-08-24T14:01:46;32.80;31.00
81210;DHT22;70685;52.496;13.420;2023-08-24T14:04:12;32.90;31.80
81210;DHT22;70685;52.496;13.420;2023-08-24T14:06:39;32.90;31.40
81210;DHT22;70685;52.496;13.420;2023-08-24T14:09:06;32.80;31.10
81210;DHT22;70685;52.496;13.420;2023-08-24T14:11:32;32.80;31.50
81210;DHT22;70685;52.496;13.420;2023-08-24T14:13:58;33.10;31.40
81210;DHT22;70685;52.496;13.420;2023-08-24T14:16:25;33.00;31.50
81210;DHT22;70685;52.496;13.420;2023-08-24T14:18:51;32.80;31.30
81210;DHT22;70685;52.496;13.420;2023-08-24T14:21:17;32.30;32.80
81210;DHT22;70685;52.496;13.420;2023-08-24T14:23:45;31.90;32.80
81210;DHT22;70685;52.496;13.420;2023-08-24T14:26:14;32.00;32.60
81210;DHT22;70685;52.496;13.420;2023-08-24T14:31:19;32.80;31.80
81210;DHT22;70685;52.496;13.420;2023-08-24T14:33:47;32.80;31.00
81210;DHT22;70685;52.496;13.420;2023-08-24T14:36:13;32.90;31.30
81210;DHT22;70685;52.496;13.420;2023-08-24T14:38:41;33.10;30.90
81210;DHT22;70685;52.496;13.420;2023-08-24T14:41:10;33.20;30.10
81210;DHT22;70685;52.496;13.420;2023-08-24T14:43:37;33.30;29.90
81210;DHT22;70685;52.496;13.420;2023-08-24T14:46:05;33.30;30.50
81210;DHT22;70685;52.496;13.420;2023-08-24T14:48:31;33.20;30.70
81210;DHT22;70685;52.496;13.420;2023-08-24T14:50:57;33.00;31.00
81210;DHT22;70685;52.496;13.420;2023-08-24T14:53:24;32.80;31.00
81210;DHT22;70685;52.496;13.420;2023-08-24T14:55:50;32.70;30.90
81210;DHT22;70685;52.496;13.420;2023-08-24T14:58:20;32.40;31.40
81210;DHT22;70685;52.496;13.420;2023-08-24T15:00:45;32.20;31.60
81210;DHT22;70685;52.496;13.420;2023-08-24T15:03:15;32.30;31.80
81210;DHT22;70685;52.496;13.420;2023-08-24T15:05:46;32.30;31.60
81210;DHT22;70685;52.496;13.420;2023-08-24T15:08:14;32.40;32.30
81210;DHT22;70685;52.496;13.420;2023-08-24T15:10:40;32.40;31.80
81210;DHT22;70685;52.496;13.420;2023-08-24T15:13:17;32.50;31.70
81210;DHT22;70685;52.496;13.420;2023-08-24T15:15:45;32.50;31.80
81210;DHT22;70685;52.496;13.420;2023-08-24T15:18:10;32.30;31.90
81210;DHT22;70685;52.496;13.420;2023-08-24T15:20:42;32.20;31.60
81210;DHT22;70685;52.496;13.420;2023-08-24T15:23:09;32.20;31.70
81210;DHT22;70685;52.496;13.420;2023-08-24T15:25:36;32.10;32.50
81210;DHT22;70685;52.496;13.420;2023-08-24T15:28:04;32.20;32.60
81210;DHT22;70685;52.496;13.420;2023-08-24T15:30:30;32.10;32.20
81210;DHT22;70685;52.496;13.420;2023-08-24T15:32:58;32.10;32.00
81210;DHT22;70685;52.496;13.420;2023-08-24T15:35:26;31.90;32.10
81210;DHT22;70685;52.496;13.420;2023-08-24T15:37:51;31.90;32.10
81210;DHT22;70685;52.496;13.420;2023-08-24T15:40:17;31.90;32.30
81210;DHT22;70685;52.496;13.420;2023-08-24T15:42:45;31.80;32.40
81210;DHT22;70685;52.496;13.420;2023-08-24T15:45:14;31.80;32.40
81210;DHT22;70685;52.496;13.420;2023-08-24T15:47:44;31.70;32.90
81210;DHT22;70685;52.496;13.420;2023-08-24T15:50:10;31.50;33.50
81210;DHT22;70685;52.496;13.420;2023-08-24T15:52:36;31.30;33.90
81210;DHT22;70685;52.496;13.420;2023-08-24T15:55:02;31.20;33.50
81210;DHT22;70685;52.496;13.420;2023-08-24T15:57:29;31.20;33.10
81210;DHT22;70685;52.496;13.420;2023-08-24T15:59:55;30.90;33.50
81210;DHT22;70685;52.496;13.420;2023-08-24T16:02:21;30.70;33.60
81210;DHT22;70685;52.496;13.420;2023-08-24T16:04:46;30.50;34.20
81210;DHT22;70685;52.496;13.420;2023-08-24T16:07:14;30.40;34.70
81210;DHT22;70685;52.496;13.420;2023-08-24T16:09:44;30.30;34.70
81210;DHT22;70685;52.496;13.420;2023-08-24T16:12:10;30.20;34.70
81210;DHT22;70685;52.496;13.420;2023-08-24T16:14:38;30.10;35.00
81210;DHT22;70685;52.496;13.420;2023-08-24T16:17:04;30.00;35.40
81210;DHT22;70685;52.496;13.420;2023-08-24T16:19:29;30.00;34.70
81210;DHT22;70685;52.496;13.420;2023-08-24T16:21:55;30.00;35.20
81210;DHT22;70685;52.496;13.420;2023-08-24T16:24:21;30.00;35.60
81210;DHT22;70685;52.496;13.420;2023-08-24T16:26:51;29.80;35.70
81210;DHT22;70685;52.496;13.420;2023-08-24T16:29:17;29.70;36.50
81210;DHT22;70685;52.496;13.420;2023-08-24T16:31:42;29.70;36.60
81210;DHT22;70685;52.496;13.420;2023-08-24T16:34:08;29.70;36.80
81210;DHT22;70685;52.496;13.420;2023-08-24T16:36:36;29.50;36.90
81210;DHT22;70685;52.496;13.420;2023-08-24T16:39:08;29.40;37.10
81210;DHT22;70685;52.496;13.420;2023-08-24T16:41:34;29.40;37.30
81210;DHT22;70685;52.496;13.420;2023-08-24T16:44:01;29.30;37.60
81210;DHT22;70685;52.496;13.420;2023-08-24T16:46:28;29.20;37.70
81210;DHT22;70685;52.496;13.420;2023-08-24T16:48:53;29.00;38.00
81210;DHT22;70685;52.496;13.420;2023-08-24T16:51:26;29.00;37.90
81210;DHT22;70685;52.496;13.420;2023-08-24T16:53:51;28.90;38.20
81210;DHT22;70685;52.496;13.420;2023-08-24T16:56:17;28.90;37.80
81210;DHT22;70685;52.496;13.420;2023-08-24T16:58:43;28.80;38.10
81210;DHT22;70685;52.496;13.420;2023-08-24T17:01:12;28.70;38.20
81210;DHT22;70685;52.496;13.420;2023-08-24T17:03:38;28.60;38.20
81210;DHT22;70685;52.496;13.420;2023-08-24T17:06:04;28.50;38.40
81210;DHT22;70685;52.496;13.420;2023-08-24T17:08:33;28.40;39.00
81210;DHT22;70685;52.496;13.420;2023-08-24T17:11:01;28.40;38.60
81210;DHT22;70685;52.496;13.420;2023-08-24T17:13:33;28.30;38.70
81210;DHT22;70685;52.496;13.420;2023-08-24T17:15:59;28.20;38.50
81210;DHT22;70685;52.496;13.420;2023-08-24T17:18:24;28.20;38.80
81210;DHT22;70685;52.496;13.420;2023-08-24T17:20:50;28.10;39.00
81210;DHT22;70685;52.496;13.420;2023-08-24T17:23:16;28.00;39.30
81210;DHT22;70685;52.496;13.420;2023-08-24T17:25:42;27.80;39.50
81210;DHT22;70685;52.496;13.420;2023-08-24T17:28:14;27.80;39.90
81210;DHT22;70685;52.496;13.420;2023-08-24T17:30:45;27.70;39.90
81210;DHT22;70685;52.496;13.420;2023-08-24T17:33:12;27.60;39.60
81210;DHT22;70685;52.496;13.420;2023-08-24T17:35:40;27.50;40.00
81210;DHT22;70685;52.496;13.420;2023-08-24T17:38:06;27.50;40.30
81210;DHT22;70685;52.496;13.420;2023-08-24T17:40:42;27.40;40.50
81210;DHT22;70685;52.496;13.420;2023-08-24T17:43:10;27.30;40.70
81210;DHT22;70685;52.496;13.420;2023-08-24T17:45:36;27.20;40.80
81210;DHT22;70685;52.496;13.420;2023-08-24T17:48:02;27.10;41.40
81210;DHT22;70685;52.496;13.420;2023-08-24T17:50:28;27.00;41.20
81210;DHT22;70685;52.496;13.420;2023-08-24T17:52:56;26.90;41.50
81210;DHT22;70685;52.496;13.420;2023-08-24T17:55:22;26.80;41.40
81210;DHT22;70685;52.496;13.420;2023-08-24T17:57:50;26.80;41.80
81210;DHT22;70685;52.496;13.420;2023-08-24T18:00:20;26.70;41.90
81210;DHT22;70685;52.496;13.420;2023-08-24T18:02:46;26.60;42.20
81210;DHT22;70685;52.496;13.420;2023-08-24T18:05:11;26.60;42.70
81210;DHT22;70685;52.496;13.420;2023-08-24T18:07:39;26.50;42.70
81210;DHT22;70685;52.496;13.420;2023-08-24T18:10:05;26.50;43.00
81210;DHT22;70685;52.496;13.420;2023-08-24T18:12:33;26.50;43.40
81210;DHT22;70685;52.496;13.420;2023-08-24T18:15:01;26.40;43.00
81210;DHT22;70685;52.496;13.420;2023-08-24T18:17:27;26.40;43.60
81210;DHT22;70685;52.496;13.420;2023-08-24T18:19:55;26.30;43.50
81210;DHT22;70685;52.496;13.420;2023-08-24T18:22:24;26.20;43.50
81210;DHT22;70685;52.496;13.420;2023-08-24T18:24:52;26.20;43.60
81210;DHT22;70685;52.496;13.420;2023-08-24T18:27:17;26.10;43.90
81210;DHT22;70685;52.496;13.420;2023-08-24T18:30:06;26.00;44.00
81210;DHT22;70685;52.496;13.420;2023-08-24T18:32:32;26.00;43.80
81210;DHT22;70685;52.496;13.420;2023-08-24T18:34:57;25.90;44.10
81210;DHT22;70685;52.496;13.420;2023-08-24T18:37:24;25.80;44.70
81210;DHT22;70685;52.496;13.420;2023-08-24T18:39:50;25.80;45.20
81210;DHT22;70685;52.496;13.420;2023-08-24T18:42:17;25.70;45.30
81210;DHT22;70685;52.496;13.420;2023-08-24T18:44:46;25.60;45.40
81210;DHT22;70685;52.496;13.420;2023-08-24T18:47:12;25.60;46.00
81210;DHT22;70685;52.496;13.420;2023-08-24T18:49:40;25.70;46.10
81210;DHT22;70685;52.496;13.420;2023-08-24T18:52:08;25.70;46.20
81210;DHT22;70685;52.496;13.420;2023-08-24T18:54:34;25.70;45.70
81210;DHT22;70685;52.496;13.420;2023-08-24T18:57:00;25.70;46.30
81210;DHT22;70685;52.496;13.420;2023-08-24T18:59:28;25.70;45.60
81210;DHT22;70685;52.496;13.420;2023-08-24T19:01:56;25.70;45.80
81210;DHT22;70685;52.496;13.420;2023-08-24T19:04:21;25.70;46.30
81210;DHT22;70685;52.496;13.420;2023-08-24T19:06:49;25.70;46.50
81210;DHT22;70685;52.496;13.420;2023-08-24T19:09:19;25.60;46.10
81210;DHT22;70685;52.496;13.420;2023-08-24T19:11:45;25.60;46.30
81210;DHT22;70685;52.496;13.420;2023-08-24T19:14:13;25.60;46.40
81210;DHT22;70685;52.496;13.420;2023-08-24T19:16:39;25.50;46.80
81210;DHT22;70685;52.496;13.420;2023-08-24T19:19:07;25.50;46.40
81210;DHT22;70685;52.496;13.420;2023-08-24T19:21:32;25.40;46.40